Time;durP1;ratioP1;P1;durP2;ratioP2;P2;SDS_P1;SDS_P2;PMS_P1;PMS_P2;Temp;Humidity;BMP_temperature;BMP_pressure;BME280_temperature;BME280_humidity;BME280_pressure;Samples;Min_cycle;Max_cycle;Signal;HPM_P1;HPM_P2
2022/07/10 00:01:46;;;;;;;1.73;0.73;;;20.50;58.90;;;;;;5060757;28;20155;-75
2022/07/10 00:04:13;;;;;;;1.75;0.80;;;20.40;61.40;;;;;;5070142;28;20128;-75
2022/07/10 00:06:41;;;;;;;1.15;0.80;;;20.50;61.00;;;;;;5070251;28;20044;-75
2022/07/10 00:09:09;;;;;;;1.85;1.00;;;20.40;61.50;;;;;;5070125;28;20139;-75
2022/07/10 00:11:36;;;;;;;1.77;1.13;;;20.80;61.40;;;;;;5070115;28;20056;-75
2022/07/10 00:14:03;;;;;;;1.33;0.80;;;20.40;58.80;;;;;;5069201;28;20527;-75
2022/07/10 00:16:30;;;;;;;1.83;0.80;;;20.40;58.90;;;;;;5069960;28;20606;-75
2022/07/10 00:18:58;;;;;;;2.10;1.25;;;20.40;58.80;;;;;;5068993;28;20062;-75
2022/07/10 00:21:25;;;;;;;1.80;0.93;;;20.40;58.80;;;;;;5069880;28;20059;-75
2022/07/10 00:23:51;;;;;;;1.10;0.70;;;20.60;61.70;;;;;;5069993;28;20048;-75
2022/07/10 00:26:18;;;;;;;1.10;0.70;;;20.40;61.30;;;;;;5069761;28;20135;-75
2022/07/10 00:28:45;;;;;;;3.38;1.00;;;20.40;58.90;;;;;;5052662;28;20079;-75
2022/07/10 00:31:12;;;;;;;1.38;0.80;;;20.40;58.80;;;;;;5049933;28;20128;-75
2022/07/10 00:33:39;;;;;;;1.60;1.00;;;20.40;58.90;;;;;;5061587;28;20052;-75
2022/07/10 00:36:07;;;;;;;1.15;0.80;;;20.40;58.80;;;;;;5069542;28;20136;-75
2022/07/10 00:38:34;;;;;;;1.23;0.90;;;20.40;61.40;;;;;;5069561;28;20084;-75
2022/07/10 00:41:01;;;;;;;1.33;0.90;;;20.40;58.90;;;;;;5068644;28;20071;-75
2022/07/10 00:43:27;;;;;;;1.40;1.00;;;20.40;58.90;;;;;;5049215;28;20060;-75
2022/07/10 00:45:54;;;;;;;2.97;0.80;;;20.40;58.90;;;;;;5049358;28;20080;-75
2022/07/10 00:48:21;;;;;;;0.70;0.70;;;20.40;58.90;;;;;;5049787;28;20136;-75
2022/07/10 00:50:48;;;;;;;1.27;0.90;;;20.40;58.90;;;;;;5049124;28;20059;-75
2022/07/10 00:53:16;;;;;;;1.70;0.80;;;20.40;59.00;;;;;;5049150;28;20454;-75
2022/07/10 00:55:42;;;;;;;1.48;0.80;;;20.40;58.90;;;;;;5050741;28;20053;-75
2022/07/10 00:58:09;;;;;;;1.13;0.80;;;20.40;58.90;;;;;;5068461;28;20413;-75
2022/07/10 01:00:37;;;;;;;1.95;1.00;;;20.30;58.90;;;;;;5068254;28;20139;-75
2022/07/10 01:03:04;;;;;;;3.25;0.80;;;20.30;59.40;;;;;;5068725;28;20429;-75
2022/07/10 01:05:30;;;;;;;1.40;0.90;;;20.30;58.90;;;;;;5069261;28;20056;-75
2022/07/10 01:07:57;;;;;;;1.70;1.00;;;20.30;58.90;;;;;;5070053;28;20139;-75
2022/07/10 01:10:25;;;;;;;1.00;0.80;;;20.30;58.90;;;;;;5068566;28;20436;-75
2022/07/10 01:12:52;;;;;;;2.10;1.00;;;20.30;58.90;;;;;;5068710;28;20055;-75
2022/07/10 01:15:19;;;;;;;2.38;0.93;;;20.30;58.90;;;;;;5070156;28;20084;-75
2022/07/10 01:17:48;;;;;;;0.98;0.70;;;20.30;58.90;;;;;;5068544;28;20485;-75
2022/07/10 01:20:15;;;;;;;1.23;0.70;;;20.30;59.00;;;;;;5051039;28;20596;-75
2022/07/10 01:22:43;;;;;;;1.70;0.80;;;20.30;59.00;;;;;;5048668;28;20087;-75
2022/07/10 01:25:11;;;;;;;1.83;0.80;;;20.30;58.90;;;;;;5048478;28;20080;-75
2022/07/10 01:27:38;;;;;;;1.38;0.75;;;20.30;58.90;;;;;;5063837;28;20064;-75
2022/07/10 01:30:06;;;;;;;1.20;0.80;;;20.30;58.90;;;;;;5068315;28;20160;-75
2022/07/10 01:32:38;;;;;;;1.48;0.93;;;20.30;58.90;;;;;;5068620;28;20116;-75
2022/07/10 01:35:05;;;;;;;1.92;0.90;;;20.30;58.90;;;;;;5068067;28;20059;-75
2022/07/10 01:37:32;;;;;;;1.20;0.60;;;20.30;59.00;;;;;;5067915;28;20059;-75
2022/07/10 01:40:00;;;;;;;2.55;0.90;;;20.30;58.90;;;;;;5068429;28;20718;-75
2022/07/10 01:42:26;;;;;;;1.17;0.75;;;20.30;59.00;;;;;;5069043;28;20136;-75
2022/07/10 01:44:54;;;;;;;1.38;0.95;;;20.30;58.90;;;;;;5068155;28;20404;-75
2022/07/10 01:47:24;;;;;;;1.42;0.80;;;20.20;58.90;;;;;;5068201;28;20055;-75
2022/07/10 01:49:51;;;;;;;0.98;0.70;;;20.20;61.50;;;;;;5068299;28;20056;-75
2022/07/10 01:52:17;;;;;;;1.50;0.80;;;20.20;61.50;;;;;;5067915;28;20056;-75
2022/07/10 01:54:44;;;;;;;1.30;0.80;;;20.20;58.90;;;;;;5067845;28;20135;-75
2022/07/10 01:57:13;;;;;;;1.75;1.13;;;20.30;61.90;;;;;;5051443;28;20087;-75
2022/07/10 01:59:40;;;;;;;1.15;0.82;;;20.30;60.10;;;;;;5047883;28;20053;-75
2022/07/10 02:02:06;;;;;;;1.00;0.77;;;20.30;61.70;;;;;;5061103;28;20091;-75
2022/07/10 02:04:41;;;;;;;1.80;0.90;;;20.20;58.90;;;;;;5067981;28;20128;-75
2022/07/10 02:07:08;;;;;;;1.65;0.88;;;20.10;61.50;;;;;;5067982;28;20044;-75
2022/07/10 02:09:34;;;;;;;1.42;0.95;;;20.20;59.00;;;;;;5067753;28;20159;-75
2022/07/10 02:12:01;;;;;;;0.68;0.68;;;20.40;61.70;;;;;;5067155;28;20048;-75
2022/07/10 02:14:29;;;;;;;1.85;0.90;;;20.20;59.00;;;;;;5066978;28;20052;-75
2022/07/10 02:16:56;;;;;;;1.83;0.80;;;20.20;59.00;;;;;;5067804;28;20706;-75
2022/07/10 02:19:23;;;;;;;1.23;0.82;;;20.20;59.00;;;;;;5067727;28;20052;-75
2022/07/10 02:21:49;;;;;;;2.08;0.80;;;20.10;62.00;;;;;;5068142;28;20139;-76
2022/07/10 02:24:16;;;;;;;1.30;0.82;;;20.20;59.10;;;;;;5067637;28;20056;-76
2022/07/10 02:26:43;;;;;;;1.10;0.73;;;20.10;59.00;;;;;;5059534;28;20045;-76
2022/07/10 02:29:10;;;;;;;1.80;1.00;;;20.20;62.00;;;;;;5057551;28;20059;-76
2022/07/10 02:31:40;;;;;;;1.13;0.75;;;20.10;59.00;;;;;;5058227;28;20140;-76
2022/07/10 02:34:07;;;;;;;1.45;0.80;;;20.10;59.00;;;;;;5058514;28;20382;-76
2022/07/10 02:36:33;;;;;;;2.47;0.90;;;20.10;59.00;;;;;;5057321;28;20508;-76
2022/07/10 02:39:00;;;;;;;1.15;0.80;;;20.10;59.00;;;;;;5055715;28;20061;-76
2022/07/10 02:41:27;;;;;;;1.88;0.88;;;20.10;59.00;;;;;;5056324;28;20045;-76
2022/07/10 02:43:54;;;;;;;3.17;0.88;;;19.40;60.80;;;;;;5056482;28;20404;-76
2022/07/10 02:46:20;;;;;;;0.80;0.77;;;20.10;59.10;;;;;;5057984;28;20139;-76
2022/07/10 02:48:48;;;;;;;3.28;0.90;;;20.10;59.00;;;;;;5056360;28;20643;-76
2022/07/10 02:51:15;;;;;;;1.67;0.80;;;20.10;59.00;;;;;;5056520;28;20044;-76
2022/07/10 02:53:42;;;;;;;1.50;0.70;;;20.10;59.00;;;;;;5057721;28;20515;-76
2022/07/10 02:56:08;;;;;;;1.40;0.70;;;20.10;59.10;;;;;;5057620;28;20048;-76
2022/07/10 02:58:35;;;;;;;2.05;1.15;;;20.20;59.10;;;;;;5057880;28;20047;-76
2022/07/10 03:01:02;;;;;;;1.30;0.80;;;20.10;59.10;;;;;;5054666;28;20521;-76
2022/07/10 03:03:29;;;;;;;2.08;0.90;;;20.00;59.10;;;;;;5055822;28;20124;-76
2022/07/10 03:05:57;;;;;;;1.42;0.70;;;20.00;59.00;;;;;;5058546;28;20045;-76
2022/07/10 03:08:23;;;;;;;1.13;0.80;;;20.00;59.00;;;;;;5055294;28;20457;-76
2022/07/10 03:10:50;;;;;;;2.00;0.90;;;20.00;59.10;;;;;;5057676;28;20502;-76
2022/07/10 03:13:17;;;;;;;1.70;0.90;;;20.00;59.00;;;;;;5056314;28;20061;-76
2022/07/10 03:15:44;;;;;;;1.38;0.80;;;20.00;59.00;;;;;;5058053;28;20055;-76
2022/07/10 03:18:10;;;;;;;1.73;0.70;;;20.00;59.00;;;;;;5056408;28;20474;-76
2022/07/10 03:20:37;;;;;;;2.42;0.90;;;20.10;62.00;;;;;;5055940;28;20053;-76
2022/07/10 03:23:05;;;;;;;2.08;0.93;;;20.10;61.80;;;;;;5053939;28;20151;-76
2022/07/10 03:25:32;;;;;;;1.55;0.77;;;20.00;61.50;;;;;;5058641;28;20488;-76
2022/07/10 03:27:58;;;;;;;0.77;0.70;;;20.10;62.00;;;;;;5055782;28;20091;-76
2022/07/10 03:30:25;;;;;;;1.38;0.70;;;19.90;61.20;;;;;;5060356;28;20135;-76
2022/07/10 03:32:52;;;;;;;1.10;1.00;;;20.00;59.10;;;;;;5055894;28;20564;-76
2022/07/10 03:35:19;;;;;;;1.10;0.63;;;20.00;59.10;;;;;;5058589;28;20048;-76
2022/07/10 03:37:45;;;;;;;1.10;0.75;;;20.00;59.10;;;;;;5058373;28;20120;-76
2022/07/10 03:40:13;;;;;;;1.70;0.75;;;20.00;59.00;;;;;;5055408;28;20164;-76
2022/07/10 03:42:40;;;;;;;2.05;0.90;;;20.00;61.80;;;;;;5058566;28;20049;-76
2022/07/10 03:45:08;;;;;;;2.33;0.95;;;20.00;59.10;;;;;;5058783;28;20049;-76
2022/07/10 03:47:34;;;;;;;1.65;0.80;;;20.00;59.10;;;;;;5063965;28;20131;-76
2022/07/10 03:50:02;;;;;;;2.03;0.93;;;20.00;59.10;;;;;;5066007;28;20061;-76
2022/07/10 03:52:28;;;;;;;1.45;0.80;;;20.00;59.10;;;;;;5066695;28;20063;-76
2022/07/10 03:54:55;;;;;;;2.17;0.80;;;19.90;59.00;;;;;;5065571;28;20053;-76
2022/07/10 04:00:19;;;;;;;2.50;0.82;;;19.90;59.00;;;;;;4992552;28;20050;-76
2022/07/10 04:02:45;;;;;;;1.38;0.82;;;19.80;58.90;;;;;;5054001;28;20048;-76
2022/07/10 04:05:12;;;;;;;1.38;0.73;;;19.90;59.00;;;;;;5069894;28;20135;-76
2022/07/10 04:07:39;;;;;;;2.40;0.98;;;19.90;61.70;;;;;;5071640;28;20059;-76
2022/07/10 04:10:07;;;;;;;2.38;0.85;;;20.10;62.20;;;;;;5069603;28;20131;-76
2022/07/10 04:12:35;;;;;;;1.70;0.88;;;19.90;59.00;;;;;;5070191;28;20084;-76
2022/07/10 04:15:06;;;;;;;1.40;0.70;;;19.90;59.00;;;;;;5070037;28;20139;-76
2022/07/10 04:17:33;;;;;;;1.23;0.75;;;19.90;59.00;;;;;;5069991;28;20047;-76
2022/07/10 04:19:59;;;;;;;1.40;0.80;;;19.90;58.90;;;;;;5070023;28;20537;-76
2022/07/10 04:22:26;;;;;;;1.15;0.80;;;19.00;61.50;;;;;;5070066;28;20049;-76
2022/07/10 04:24:53;;;;;;;1.95;0.70;;;19.90;59.00;;;;;;5058296;28;20092;-76
2022/07/10 04:27:20;;;;;;;1.40;0.80;;;19.90;58.90;;;;;;5050146;28;20092;-76
2022/07/10 04:29:48;;;;;;;1.23;0.98;;;19.90;59.00;;;;;;5049428;28;20164;-76
2022/07/10 04:32:15;;;;;;;1.10;0.80;;;19.70;62.10;;;;;;5050331;28;20132;-76
2022/07/10 04:34:42;;;;;;;1.45;0.93;;;19.90;59.00;;;;;;5069747;28;20082;-76
2022/07/10 04:37:09;;;;;;;1.20;0.80;;;19.90;59.00;;;;;;5069615;28;20072;-76
2022/07/10 04:39:35;;;;;;;1.17;0.77;;;20.10;60.20;;;;;;5053442;28;20596;-76
2022/07/10 04:42:03;;;;;;;1.75;0.90;;;19.90;59.00;;;;;;5049473;28;20091;-76
2022/07/10 04:44:30;;;;;;;1.23;0.80;;;19.90;59.00;;;;;;5049597;28;20065;-76
2022/07/10 04:46:58;;;;;;;1.88;0.90;;;19.90;58.90;;;;;;5049889;28;20661;-76
2022/07/10 04:49:25;;;;;;;1.10;0.80;;;19.10;59.30;;;;;;5049338;28;20049;-76
2022/07/10 04:51:52;;;;;;;1.20;0.90;;;19.80;61.30;;;;;;5049497;28;20135;-76
2022/07/10 04:54:18;;;;;;;1.20;0.98;;;19.90;59.00;;;;;;5064980;28;20559;-76
2022/07/10 04:56:45;;;;;;;1.25;0.75;;;19.90;58.90;;;;;;5070692;28;20128;-76
2022/07/10 04:59:12;;;;;;;1.23;0.68;;;19.90;61.90;;;;;;5069288;28;20127;-76
2022/07/10 05:01:38;;;;;;;1.65;0.80;;;19.10;61.40;;;;;;5068920;28;20045;-76
2022/07/10 05:04:08;;;;;;;1.33;0.77;;;19.90;58.90;;;;;;5069175;28;20412;-76
2022/07/10 05:06:35;;;;;;;1.98;0.80;;;19.90;58.90;;;;;;5067916;28;20493;-76
2022/07/10 05:09:01;;;;;;;1.52;0.90;;;19.80;61.70;;;;;;5049476;28;20549;-76
2022/07/10 05:11:29;;;;;;;0.85;0.70;;;19.90;62.00;;;;;;5049091;28;20049;-76
2022/07/10 05:13:56;;;;;;;1.33;0.90;;;19.90;58.90;;;;;;5049158;28;20053;-76
2022/07/10 05:16:22;;;;;;;1.20;0.70;;;19.80;61.40;;;;;;5049111;28;20052;-76
2022/07/10 05:18:49;;;;;;;1.20;0.70;;;19.90;58.90;;;;;;5048379;28;20152;-76
2022/07/10 05:21:17;;;;;;;2.05;0.90;;;19.90;58.90;;;;;;5050358;28;20731;-76
2022/07/10 05:23:46;;;;;;;1.60;0.93;;;19.90;58.90;;;;;;5050114;28;20059;-76
2022/07/10 05:26:15;;;;;;;1.55;0.85;;;19.90;58.80;;;;;;5050334;28;20045;-76
2022/07/10 05:28:42;;;;;;;0.90;0.68;;;19.90;58.80;;;;;;5048895;28;20602;-76
2022/07/10 05:31:09;;;;;;;2.05;0.88;;;19.90;58.90;;;;;;5048989;28;20510;-76
2022/07/10 05:33:38;;;;;;;2.08;0.90;;;20.00;61.80;;;;;;5060173;28;20132;-76
2022/07/10 05:36:06;;;;;;;1.15;0.70;;;19.90;58.90;;;;;;5064526;28;20132;-76
2022/07/10 05:38:34;;;;;;;1.17;0.80;;;19.90;58.90;;;;;;5068477;28;20493;-76
2022/07/10 05:41:00;;;;;;;1.15;0.80;;;19.90;58.90;;;;;;5068521;28;20056;-76
2022/07/10 05:43:27;;;;;;;1.42;0.90;;;19.60;61.60;;;;;;5068577;28;20062;-76
2022/07/10 05:45:54;;;;;;;1.23;0.93;;;19.90;58.80;;;;;;5068359;28;20053;-76
2022/07/10 05:48:20;;;;;;;2.03;0.88;;;20.00;62.10;;;;;;5068337;28;20052;-76
2022/07/10 05:50:47;;;;;;;1.75;0.82;;;19.90;61.40;;;;;;5067861;28;20086;-76
2022/07/10 05:53:14;;;;;;;1.95;0.80;;;19.90;58.80;;;;;;5067893;28;20040;-76
2022/07/10 05:55:42;;;;;;;2.78;1.00;;;19.90;58.80;;;;;;5067736;28;20583;-76
2022/07/10 05:58:08;;;;;;;1.17;0.75;;;19.90;58.80;;;;;;5068242;28;20117;-76
2022/07/10 06:00:35;;;;;;;1.30;0.80;;;18.70;60.50;;;;;;5067599;28;20504;-76
2022/07/10 06:03:02;;;;;;;2.10;1.15;;;19.90;58.80;;;;;;5067655;28;20072;-76
2022/07/10 06:05:28;;;;;;;2.28;1.00;;;19.90;58.70;;;;;;5063478;28;20051;-76
2022/07/10 06:07:55;;;;;;;2.60;0.95;;;19.90;58.70;;;;;;5048133;28;20044;-76
2022/07/10 06:10:22;;;;;;;1.40;0.73;;;19.90;58.70;;;;;;5048135;28;20541;-76
2022/07/10 06:12:50;;;;;;;2.00;0.90;;;19.90;58.80;;;;;;5047391;28;20053;-76
2022/07/10 06:15:17;;;;;;;2.33;0.80;;;20.10;61.50;;;;;;5048015;28;20164;-76
2022/07/10 06:17:44;;;;;;;2.20;0.95;;;19.90;58.70;;;;;;5046862;28;20047;-76
2022/07/10 06:20:11;;;;;;;1.67;0.73;;;19.90;58.70;;;;;;5047747;28;20496;-76
2022/07/10 06:22:39;;;;;;;1.45;0.77;;;19.90;58.80;;;;;;5053224;28;20055;-76
2022/07/10 06:25:07;;;;;;;1.45;0.80;;;19.90;58.70;;;;;;5047610;28;20056;-76
2022/07/10 06:27:34;;;;;;;2.42;0.80;;;20.40;61.50;;;;;;5047809;28;20069;-76
2022/07/10 06:30:02;;;;;;;9.05;1.42;;;19.90;58.80;;;;;;5047857;28;20061;-76
2022/07/10 06:32:29;;;;;;;1.20;0.80;;;19.90;58.70;;;;;;5050847;28;20132;-76
2022/07/10 06:34:55;;;;;;;2.25;0.80;;;20.10;58.90;;;;;;5067619;28;20500;-76
2022/07/10 06:37:22;;;;;;;6.85;1.15;;;19.90;58.70;;;;;;5067140;28;20067;-76
2022/07/10 06:39:49;;;;;;;1.88;0.93;;;19.60;60.90;;;;;;5047431;28;20148;-76
2022/07/10 06:42:16;;;;;;;1.98;0.80;;;20.30;61.70;;;;;;5047559;28;20131;-76
2022/07/10 06:44:42;;;;;;;2.80;0.70;;;20.10;58.60;;;;;;5047703;28;20139;-76
2022/07/10 06:49:55;;;;;;;1.55;0.85;;;20.20;61.20;;;;;;5056354;28;20077;-76
2022/07/10 06:52:21;;;;;;;5.57;0.90;;;20.10;58.60;;;;;;5056730;28;20450;-76
2022/07/10 06:54:48;;;;;;;2.90;1.08;;;20.20;58.60;;;;;;5047282;28;20111;-75
2022/07/10 06:57:15;;;;;;;2.05;0.90;;;20.20;61.70;;;;;;5060794;28;20079;-75
2022/07/10 06:59:42;;;;;;;3.88;0.80;;;20.30;60.60;;;;;;5067228;28;20071;-74
2022/07/10 07:02:10;;;;;;;1.08;0.80;;;20.20;58.60;;;;;;5067120;28;20049;-74
2022/07/10 07:04:36;;;;;;;2.58;1.00;;;20.20;58.70;;;;;;5067596;28;20335;-74
2022/07/10 07:07:03;;;;;;;1.70;1.00;;;20.00;60.90;;;;;;5062585;28;20053;-74
2022/07/10 07:09:30;;;;;;;3.10;1.30;;;20.10;58.80;;;;;;5057051;28;20120;-74
2022/07/10 07:11:57;;;;;;;4.80;1.00;;;20.10;58.80;;;;;;5056951;28;20052;-74
2022/07/10 07:14:23;;;;;;;2.35;1.00;;;20.20;61.90;;;;;;5056720;28;20071;-75
2022/07/10 07:16:58;;;;;;;1.48;0.70;;;20.10;58.90;;;;;;5058353;28;20417;-75
2022/07/10 07:19:31;;;;;;;1.80;0.93;;;21.00;61.40;;;;;;5057018;28;20558;-75
2022/07/10 07:24:43;;;;;;;3.78;1.33;;;20.10;59.00;;;;;;5056629;28;20053;-75
2022/07/10 07:27:10;;;;;;;2.22;1.17;;;20.10;59.10;;;;;;5053669;28;20049;-75
2022/07/10 07:29:37;;;;;;;1.85;0.82;;;20.30;60.20;;;;;;5050170;28;20132;-75
2022/07/10 07:32:04;;;;;;;3.30;0.85;;;19.90;61.10;;;;;;5060945;28;20141;-75
2022/07/10 07:34:32;;;;;;;2.30;0.88;;;20.00;59.00;;;;;;5062212;28;20412;-75
2022/07/10 07:36:59;;;;;;;4.88;1.08;;;20.00;62.20;;;;;;5057184;28;20049;-74
2022/07/10 07:39:26;;;;;;;4.00;0.85;;;19.30;59.40;;;;;;5059764;28;20040;-75
2022/07/10 07:41:53;;;;;;;1.65;0.90;;;20.00;59.00;;;;;;5061306;28;20139;-74
2022/07/10 07:44:19;;;;;;;1.33;0.85;;;20.00;59.00;;;;;;5059403;28;20098;-74
2022/07/10 07:46:46;;;;;;;4.40;1.30;;;19.30;61.10;;;;;;5061680;28;20113;-74
2022/07/10 07:49:13;;;;;;;1.50;0.95;;;19.60;61.80;;;;;;5059420;28;20131;-75
2022/07/10 07:51:41;;;;;;;1.85;0.80;;;19.70;61.70;;;;;;5060109;28;20127;-74
2022/07/10 07:54:08;;;;;;;1.88;0.90;;;20.10;59.00;;;;;;5060876;28;20513;-75
2022/07/10 07:56:34;;;;;;;1.77;0.90;;;20.10;62.00;;;;;;5058981;28;20049;-75
2022/07/10 07:59:01;;;;;;;2.08;0.90;;;20.20;59.00;;;;;;5060472;28;20124;-74
2022/07/10 08:01:28;;;;;;;1.60;0.70;;;20.20;59.00;;;;;;5057872;28;20049;-74
2022/07/10 08:03:55;;;;;;;1.48;0.77;;;20.20;59.00;;;;;;5058988;28;20049;-74
2022/07/10 08:06:22;;;;;;;2.85;0.90;;;20.20;61.90;;;;;;5060169;28;20049;-74
2022/07/10 08:08:50;;;;;;;1.88;0.85;;;20.30;59.00;;;;;;5059447;28;20040;-75
2022/07/10 08:11:17;;;;;;;1.50;0.80;;;20.30;61.40;;;;;;5052997;28;20053;-75
2022/07/10 08:13:44;;;;;;;2.05;0.80;;;20.30;58.90;;;;;;5057231;28;20067;-74
2022/07/10 08:16:11;;;;;;;2.67;1.00;;;20.40;59.00;;;;;;5070458;28;20063;-74
2022/07/10 08:18:37;;;;;;;3.58;0.95;;;20.40;58.90;;;;;;5069794;28;20098;-74
2022/07/10 08:21:04;;;;;;;1.60;0.90;;;21.20;62.20;;;;;;5069121;28;20060;-74
2022/07/10 08:23:31;;;;;;;2.40;0.90;;;20.50;58.80;;;;;;5067092;28;20493;-74
2022/07/10 08:25:59;;;;;;;2.85;0.85;;;20.50;58.70;;;;;;5049787;28;20149;-75
2022/07/10 08:28:26;;;;;;;7.80;1.10;;;20.50;58.80;;;;;;5050016;28;20052;-75
2022/07/10 08:30:52;;;;;;;2.03;0.77;;;20.50;59.00;;;;;;5049916;28;20060;-75
2022/07/10 08:33:20;;;;;;;1.45;0.88;;;20.50;59.00;;;;;;5059202;28;20055;-75
2022/07/10 08:35:47;;;;;;;2.13;1.02;;;20.50;59.00;;;;;;5068930;28;20060;-75
2022/07/10 08:38:13;;;;;;;1.63;0.88;;;20.40;61.20;;;;;;5069438;28;20067;-75
2022/07/10 08:40:40;;;;;;;2.65;1.00;;;20.50;58.90;;;;;;5068555;28;20061;-74
2022/07/10 08:43:08;;;;;;;2.50;1.00;;;20.50;58.90;;;;;;5069523;28;20056;-75
2022/07/10 08:45:35;;;;;;;2.28;1.00;;;20.50;59.00;;;;;;5066023;28;20055;-76
2022/07/10 08:48:03;;;;;;;3.10;1.27;;;19.40;61.00;;;;;;5057671;28;20048;-75
2022/07/10 08:50:30;;;;;;;2.10;0.80;;;20.40;61.50;;;;;;5049358;28;20052;-75
2022/07/10 08:53:09;;;;;;;2.05;0.68;;;20.40;59.00;;;;;;5059042;28;20058;-75
2022/07/10 08:55:36;;;;;;;2.35;0.90;;;20.40;59.00;;;;;;5054837;28;20139;-75
2022/07/10 08:58:04;;;;;;;3.28;1.05;;;20.30;61.80;;;;;;5051835;28;20075;-75
2022/07/10 09:00:32;;;;;;;2.33;0.90;;;20.10;61.60;;;;;;5048658;28;20529;-74
2022/07/10 09:02:59;;;;;;;2.35;0.68;;;20.30;59.00;;;;;;5069170;28;20059;-75
2022/07/10 09:05:26;;;;;;;2.22;0.80;;;20.30;59.00;;;;;;5057770;28;20128;-75
2022/07/10 09:07:54;;;;;;;2.78;0.80;;;20.40;59.00;;;;;;5067161;28;20052;-75
2022/07/10 09:10:21;;;;;;;1.70;0.70;;;20.40;59.00;;;;;;5048970;28;20049;-75
2022/07/10 09:12:51;;;;;;;1.05;0.60;;;20.40;59.00;;;;;;5049086;28;20056;-75
2022/07/10 09:15:19;;;;;;;1.38;1.05;;;20.40;59.00;;;;;;5048568;28;20049;-75
2022/07/10 09:17:54;;;;;;;1.08;0.70;;;20.30;59.00;;;;;;5049124;28;20491;-75
2022/07/10 09:20:32;;;;;;;0.88;0.68;;;20.40;59.10;;;;;;5054322;28;20037;-75
2022/07/10 09:22:59;;;;;;;0.85;0.75;;;20.20;61.60;;;;;;5057531;28;20139;-74
2022/07/10 09:25:34;;;;;;;2.08;0.82;;;20.40;59.30;;;;;;5049096;28;20501;-75
2022/07/10 09:28:05;;;;;;;2.13;0.88;;;20.40;59.40;;;;;;5049064;28;20068;-75
2022/07/10 09:30:41;;;;;;;1.42;0.80;;;20.40;59.40;;;;;;5048849;28;20052;-74
2022/07/10 09:33:25;;;;;;;2.10;0.98;;;20.50;62.50;;;;;;5064447;28;20071;-74
2022/07/10 09:36:06;;;;;;;2.00;0.83;;;20.40;59.50;;;;;;5066764;28;20060;-75
2022/07/10 09:38:56;;;;;;;1.48;0.80;;;20.40;59.60;;;;;;5054615;28;20087;-74
2022/07/10 09:41:25;;;;;;;2.28;1.02;;;20.40;59.60;;;;;;5048479;28;20417;-74
2022/07/10 09:43:52;;;;;;;2.10;0.98;;;20.40;59.70;;;;;;5057119;28;20412;-75
2022/07/10 09:46:21;;;;;;;1.88;0.80;;;20.40;59.70;;;;;;5068095;28;20052;-74
2022/07/10 09:48:49;;;;;;;1.63;0.80;;;19.50;61.80;;;;;;5068146;28;20075;-77
2022/07/10 09:51:15;;;;;;;1.05;0.70;;;19.50;61.50;;;;;;5068039;28;20135;-75
2022/07/10 09:53:43;;;;;;;2.88;0.77;;;20.50;59.80;;;;;;5067855;28;20592;-76
2022/07/10 09:56:11;;;;;;;1.50;0.70;;;21.20;62.30;;;;;;5067987;28;20132;-77
2022/07/10 09:58:38;;;;;;;1.63;0.80;;;20.40;62.30;;;;;;5067968;28;20128;-75
2022/07/10 10:01:05;;;;;;;2.05;0.82;;;20.40;59.70;;;;;;5067442;28;20060;-75
2022/07/10 10:03:34;;;;;;;4.10;0.98;;;20.40;62.00;;;;;;5067957;28;20079;-76
2022/07/10 10:06:04;;;;;;;2.25;0.80;;;20.40;59.80;;;;;;5068085;28;20118;-75
2022/07/10 10:08:33;;;;;;;1.98;1.10;;;20.40;59.90;;;;;;5064659;28;20501;-75
2022/07/10 10:11:00;;;;;;;5.88;0.93;;;20.50;60.00;;;;;;5055198;28;20041;-74
2022/07/10 10:13:27;;;;;;;3.72;0.80;;;20.40;59.90;;;;;;5047425;28;20156;-74
2022/07/10 10:15:54;;;;;;;3.10;0.70;;;20.40;59.90;;;;;;5047836;28;20061;-74
2022/07/10 10:18:22;;;;;;;2.13;0.73;;;20.50;59.90;;;;;;5048210;28;20061;-74
2022/07/10 10:20:49;;;;;;;4.18;0.90;;;20.50;59.80;;;;;;5047579;28;20058;-74
2022/07/10 10:23:20;;;;;;;1.52;0.80;;;20.60;59.90;;;;;;5062565;28;20048;-74
2022/07/10 10:25:46;;;;;;;3.35;1.35;;;20.60;62.20;;;;;;5067598;28;20055;-75
2022/07/10 10:28:14;;;;;;;3.75;1.35;;;20.60;59.80;;;;;;5061958;28;20469;-76
2022/07/10 10:30:42;;;;;;;2.78;1.10;;;20.60;59.80;;;;;;5053467;28;20110;-76
2022/07/10 10:33:51;;;;;;;1.70;1.00;;;20.60;62.20;;;;;;5058846;28;20059;-76
2022/07/10 10:36:48;;;;;;;3.53;1.10;;;20.60;59.80;;;;;;5057175;28;20049;-76
2022/07/10 10:39:18;;;;;;;3.22;1.13;;;20.50;62.50;;;;;;5001039;28;20577;-76
2022/07/10 10:41:50;;;;;;;2.40;1.15;;;20.50;62.10;;;;;;5041829;28;20045;-76
2022/07/10 10:44:24;;;;;;;6.25;1.58;;;20.60;62.10;;;;;;5056362;28;20048;-76
2022/07/10 10:47:00;;;;;;;1.38;1.00;;;21.90;61.70;;;;;;5041668;28;20101;-75
2022/07/10 10:49:27;;;;;;;2.72;0.80;;;20.60;60.40;;;;;;5054324;28;20055;-77
2022/07/10 10:51:58;;;;;;;0.95;0.80;;;20.60;62.70;;;;;;5055544;28;20135;-77
2022/07/10 10:54:26;;;;;;;1.08;0.90;;;20.70;62.30;;;;;;5058092;28;20048;-76
2022/07/10 10:57:14;;;;;;;4.10;1.10;;;20.60;59.80;;;;;;5048235;28;20521;-76
2022/07/10 10:59:47;;;;;;;2.13;0.88;;;20.50;60.90;;;;;;5057319;28;20095;-76
2022/07/10 11:02:25;;;;;;;2.72;0.85;;;20.70;62.20;;;;;;5059959;28;20680;-77
2022/07/10 11:04:52;;;;;;;2.10;1.00;;;20.70;59.70;;;;;;5059251;28;20053;-77
2022/07/10 11:07:52;;;;;;;1.60;0.75;;;20.60;59.70;;;;;;5062420;28;20051;-76
2022/07/10 11:10:30;;;;;;;2.35;1.00;;;20.60;59.60;;;;;;5059461;28;20045;-76
2022/07/10 11:12:59;;;;;;;3.50;1.10;;;20.70;59.80;;;;;;5052608;28;20580;-76
2022/07/10 11:15:25;;;;;;;2.65;0.90;;;20.60;59.80;;;;;;5051486;28;20084;-77
2022/07/10 11:17:52;;;;;;;2.47;0.98;;;20.70;59.80;;;;;;5051325;28;20136;-75
2022/07/10 11:20:19;;;;;;;4.47;1.10;;;20.80;59.70;;;;;;5050822;28;20042;-75
2022/07/10 11:22:50;;;;;;;3.47;1.23;;;20.80;59.70;;;;;;5050872;28;20450;-75
2022/07/10 11:25:42;;;;;;;2.83;0.80;;;20.90;62.00;;;;;;5051088;28;20059;-74
2022/07/10 11:28:09;;;;;;;3.05;1.30;;;20.80;59.70;;;;;;5057804;28;20075;-74
2022/07/10 11:30:50;;;;;;;4.35;0.80;;;20.80;62.10;;;;;;5070924;28;20101;-76
2022/07/10 11:33:18;;;;;;;7.70;1.13;;;20.90;59.70;;;;;;5070886;28;20048;-75
2022/07/10 11:35:48;;;;;;;3.40;0.82;;;21.00;62.40;;;;;;5071097;28;20129;-75
2022/07/10 11:38:20;;;;;;;1.75;0.80;;;20.90;59.70;;;;;;5071215;28;20489;-76
2022/07/10 11:40:48;;;;;;;3.42;1.10;;;21.00;59.60;;;;;;5068396;28;20124;-75
2022/07/10 11:43:17;;;;;;;3.83;0.73;;;21.00;59.80;;;;;;5071598;28;20131;-75
2022/07/10 11:45:44;;;;;;;1.90;0.90;;;21.00;59.80;;;;;;5064370;28;20052;-76
2022/07/10 11:48:17;;;;;;;3.92;0.73;;;21.00;59.70;;;;;;5064448;28;20051;-76
2022/07/10 11:50:44;;;;;;;3.42;0.95;;;21.00;59.70;;;;;;5069951;28;20132;-76
2022/07/10 11:53:10;;;;;;;2.22;0.80;;;21.00;59.70;;;;;;5068490;28;20045;-75
2022/07/10 11:55:40;;;;;;;1.35;0.70;;;21.10;59.90;;;;;;5062015;28;20589;-75
2022/07/10 11:58:15;;;;;;;4.30;0.90;;;21.00;60.10;;;;;;5058590;28;20053;-75
2022/07/10 12:00:42;;;;;;;3.47;0.93;;;21.00;60.30;;;;;;5063263;28;20080;-75
2022/07/10 12:03:17;;;;;;;5.45;0.80;;;21.00;60.30;;;;;;5051343;28;20549;-75
2022/07/10 12:05:44;;;;;;;1.48;0.65;;;21.00;60.60;;;;;;5050402;28;20147;-75
2022/07/10 12:08:13;;;;;;;2.78;0.80;;;19.70;62.40;;;;;;5050335;28;20061;-76
2022/07/10 12:10:41;;;;;;;1.73;0.80;;;21.20;60.70;;;;;;5050491;28;20060;-75
2022/07/10 12:13:08;;;;;;;3.92;1.38;;;21.00;62.60;;;;;;5050130;28;20486;-75
2022/07/10 12:15:37;;;;;;;1.70;0.68;;;21.00;60.60;;;;;;5050447;28;20528;-76
2022/07/10 12:18:05;;;;;;;5.13;0.95;;;19.90;62.40;;;;;;5050412;28;20068;-75
2022/07/10 12:20:31;;;;;;;1.73;0.90;;;21.00;60.60;;;;;;5050116;28;20471;-75
2022/07/10 12:22:58;;;;;;;2.00;0.70;;;21.00;60.60;;;;;;5049906;28;20060;-75
2022/07/10 12:25:25;;;;;;;1.95;0.95;;;21.00;60.50;;;;;;5050246;28;20132;-75
2022/07/10 12:27:56;;;;;;;4.30;1.05;;;21.00;60.60;;;;;;5056533;28;20047;-75
2022/07/10 12:30:23;;;;;;;2.42;1.13;;;21.00;60.70;;;;;;5055280;28;20053;-75
2022/07/10 12:32:51;;;;;;;2.08;0.70;;;20.90;62.80;;;;;;5063223;28;20129;-75
2022/07/10 12:35:20;;;;;;;2.72;0.88;;;20.40;62.10;;;;;;5060905;28;20057;-75
2022/07/10 12:37:50;;;;;;;1.45;0.80;;;20.90;60.50;;;;;;5054486;28;20634;-75
2022/07/10 12:40:32;;;;;;;1.45;1.00;;;20.90;62.50;;;;;;5051958;28;20110;-75
2022/07/10 12:43:02;;;;;;;1.40;0.70;;;20.90;60.40;;;;;;5049984;28;20048;-75
2022/07/10 12:45:29;;;;;;;2.95;0.70;;;20.90;60.50;;;;;;5049833;28;20056;-76
2022/07/10 12:47:57;;;;;;;1.25;0.65;;;21.00;60.30;;;;;;5049877;28;20072;-75
2022/07/10 12:50:25;;;;;;;1.13;0.80;;;21.00;63.00;;;;;;5049548;28;20073;-75
2022/07/10 12:53:06;;;;;;;1.75;0.80;;;21.00;62.60;;;;;;5049558;28;20060;-75
2022/07/10 12:55:37;;;;;;;2.60;0.90;;;22.50;61.00;;;;;;5049757;28;20091;-75
2022/07/10 12:58:06;;;;;;;1.52;0.90;;;20.80;62.70;;;;;;5057810;28;20079;-75
2022/07/10 13:00:34;;;;;;;0.82;0.77;;;20.90;60.10;;;;;;5068696;28;20055;-75
2022/07/10 13:03:03;;;;;;;1.23;0.60;;;20.90;60.00;;;;;;5069238;28;20147;-75